Time;durP1;ratioP1;P1;durP2;ratioP2;P2;SDS_P1;SDS_P2;PMS_P1;PMS_P2;Temp;Humidity;BMP_temperature;BMP_pressure;BME280_temperature;BME280_humidity;BME280_pressure;Samples;Min_cycle;Max_cycle;Signal;HPM_P1;HPM_P2
2022/03/26 00:00:22;;;;;;;37.63;22.83;;;;;;;8.37;57.43;103049.66;5011710;28;20049;-63
2022/03/26 00:02:47;;;;;;;34.80;21.13;;;;;;;8.35;57.69;103057.66;5026340;28;20369;-63
2022/03/26 00:05:13;;;;;;;35.22;22.50;;;;;;;8.30;57.85;103055.16;5020743;28;20034;-63
2022/03/26 00:07:38;;;;;;;40.40;22.23;;;;;;;8.28;57.36;103051.69;5046262;28;20045;-63
2022/03/26 00:10:04;;;;;;;33.42;23.05;;;;;;;8.24;58.25;103055.31;5031178;28;20032;-63
2022/03/26 00:12:30;;;;;;;38.80;22.38;;;;;;;8.23;58.21;103053.63;5011920;28;20065;-63
2022/03/26 00:14:55;;;;;;;32.85;23.05;;;;;;;8.20;58.20;103048.41;5011130;28;20030;-63
2022/03/26 00:17:20;;;;;;;39.70;22.83;;;;;;;8.17;58.55;103048.50;5010933;28;20041;-63
2022/03/26 00:19:45;;;;;;;33.10;22.75;;;;;;;8.14;58.03;103048.59;5024260;28;20025;-62
2022/03/26 00:22:11;;;;;;;38.55;23.17;;;;;;;8.10;58.69;103052.25;5030779;28;20487;-62
2022/03/26 00:24:36;;;;;;;33.80;21.92;;;;;;;8.08;58.50;103047.00;5030804;28;20036;-62
2022/03/26 00:27:02;;;;;;;38.80;22.95;;;;;;;8.00;58.63;103049.03;5030219;28;20396;-62
2022/03/26 00:29:27;;;;;;;32.65;21.85;;;;;;;7.95;59.16;103046.50;5030803;28;20390;-62
2022/03/26 00:31:52;;;;;;;33.67;22.55;;;;;;;7.91;58.97;103036.06;5030015;28;20068;-62
2022/03/26 00:34:18;;;;;;;37.88;23.05;;;;;;;7.90;59.17;103044.94;5030646;28;20040;-62
2022/03/26 00:36:43;;;;;;;34.75;22.95;;;;;;;7.85;59.59;103042.41;5030627;28;20096;-62
2022/03/26 00:39:08;;;;;;;36.47;22.48;;;;;;;7.82;59.61;103045.16;5028028;28;20059;-62
2022/03/26 00:41:34;;;;;;;35.63;23.80;;;;;;;7.75;59.71;103043.59;5029192;28;20033;-62
2022/03/26 00:44:00;;;;;;;37.50;23.15;;;;;;;7.75;59.92;103041.81;5030424;28;20071;-62
2022/03/26 00:46:25;;;;;;;37.42;22.95;;;;;;;7.73;60.16;103048.06;5026586;28;20037;-62
2022/03/26 00:48:51;;;;;;;36.75;22.65;;;;;;;7.67;59.95;103048.25;5009553;28;20472;-62
2022/03/26 00:51:17;;;;;;;35.65;23.00;;;;;;;7.64;60.48;103048.34;5025999;28;20173;-62
2022/03/26 00:53:43;;;;;;;35.40;23.05;;;;;;;7.59;60.51;103052.00;5030598;28;20116;-62
2022/03/26 00:56:09;;;;;;;36.55;23.23;;;;;;;7.54;59.94;103045.97;5034654;28;20053;-62
2022/03/26 00:58:35;;;;;;;35.30;22.77;;;;;;;7.49;60.58;103045.19;5034542;28;20530;-62
2022/03/26 01:01:00;;;;;;;38.83;24.55;;;;;;;7.45;60.75;103051.50;5013691;28;20084;-62
2022/03/26 01:03:25;;;;;;;39.85;23.00;;;;;;;7.39;60.92;103043.72;5014535;28;20106;-63
2022/03/26 01:05:51;;;;;;;36.53;23.38;;;;;;;7.36;60.41;103038.53;5014721;28;20476;-63
2022/03/26 01:08:16;;;;;;;37.85;22.35;;;;;;;7.34;61.45;103045.63;5014977;28;20045;-63
2022/03/26 01:10:44;;;;;;;32.17;21.98;;;;;;;7.31;60.43;103033.38;5014574;28;20041;-63
2022/03/26 01:13:10;;;;;;;44.13;23.92;;;;;;;7.31;61.18;103032.50;5014362;28;20132;-63
2022/03/26 01:15:36;;;;;;;36.85;23.58;;;;;;;7.27;61.71;103036.16;5018365;28;20052;-64
2022/03/26 01:18:01;;;;;;;35.40;23.63;;;;;;;7.23;61.51;103038.88;5032697;28;20037;-63
2022/03/26 01:20:26;;;;;;;37.67;24.40;;;;;;;7.17;61.71;103033.75;5033988;28;20044;-63
2022/03/26 01:22:52;;;;;;;35.05;22.05;;;;;;;7.18;61.81;103035.50;5033879;28;20114;-63
2022/03/26 01:25:17;;;;;;;36.67;23.52;;;;;;;7.13;61.84;103037.41;5034381;28;20025;-63
2022/03/26 01:27:43;;;;;;;37.45;23.55;;;;;;;7.09;62.06;103035.72;5033919;28;20502;-63
2022/03/26 01:30:09;;;;;;;36.72;22.85;;;;;;;7.06;62.42;103034.94;5023517;28;20250;-63
2022/03/26 01:32:34;;;;;;;39.20;22.80;;;;;;;7.04;62.14;103034.97;5013980;28;20034;-63
2022/03/26 01:34:59;;;;;;;38.58;24.27;;;;;;;6.99;62.46;103034.25;5012827;28;20061;-62
2022/03/26 01:37:25;;;;;;;40.80;25.20;;;;;;;6.95;62.57;103030.81;5014041;28;20434;-62
2022/03/26 01:39:51;;;;;;;36.92;23.30;;;;;;;6.92;62.70;103037.97;5012424;28;20061;-62
2022/03/26 01:42:17;;;;;;;39.08;23.30;;;;;;;6.90;62.53;103034.50;5013119;28;20033;-62
2022/03/26 01:44:43;;;;;;;35.47;22.98;;;;;;;6.84;62.56;103036.41;5013606;28;20045;-62
2022/03/26 01:47:09;;;;;;;35.33;24.38;;;;;;;6.81;62.53;103040.88;5026320;28;20037;-62
2022/03/26 01:49:35;;;;;;;37.67;23.90;;;;;;;6.80;62.92;103047.06;5033530;28;20080;-62
2022/03/26 01:52:02;;;;;;;37.92;23.70;;;;;;;6.77;63.16;103048.00;5033134;28;20021;-63
2022/03/26 01:54:28;;;;;;;42.17;23.80;;;;;;;6.72;62.73;103041.97;5048633;28;20112;-62
2022/03/26 01:56:55;;;;;;;35.13;23.50;;;;;;;6.68;62.80;103045.59;5033425;28;20051;-62
2022/03/26 01:59:23;;;;;;;38.05;23.60;;;;;;;6.66;63.43;103048.28;5033007;28;20060;-61
2022/03/26 02:01:48;;;;;;;36.08;23.38;;;;;;;6.63;63.27;103050.13;5029039;28;20034;-61
2022/03/26 02:04:14;;;;;;;40.88;23.88;;;;;;;6.58;63.95;103046.75;5012780;28;20076;-62
2022/03/26 02:06:40;;;;;;;36.03;23.70;;;;;;;6.54;63.79;103040.66;5012812;28;20066;-61
2022/03/26 02:09:09;;;;;;;38.10;23.30;;;;;;;6.51;64.13;103040.72;5013207;28;20030;-63
2022/03/26 02:11:37;;;;;;;34.58;23.33;;;;;;;6.49;64.23;103037.25;5014110;28;20112;-63
2022/03/26 02:14:03;;;;;;;35.08;22.30;;;;;;;6.46;64.56;103043.50;5013079;28;20048;-63
2022/03/26 02:16:30;;;;;;;38.95;24.70;;;;;;;6.44;64.38;103042.63;5027012;28;20025;-63
2022/03/26 02:18:55;;;;;;;34.58;21.70;;;;;;;6.44;64.52;103044.41;5031467;28;20034;-63
2022/03/26 02:21:22;;;;;;;36.92;23.48;;;;;;;6.40;64.39;103042.75;5032800;28;20040;-63
2022/03/26 02:23:49;;;;;;;37.47;23.42;;;;;;;6.36;64.54;103036.69;5032187;28;20071;-63
2022/03/26 02:26:20;;;;;;;42.22;23.48;;;;;;;6.37;64.71;103040.19;5048000;28;20360;-64
2022/03/26 02:28:46;;;;;;;39.42;23.25;;;;;;;6.33;65.17;103039.41;5032641;28;20029;-64
2022/03/26 02:31:14;;;;;;;37.00;23.02;;;;;;;6.32;65.18;103031.53;5032704;28;20083;-64
2022/03/26 02:33:40;;;;;;;45.05;23.75;;;;;;;6.26;64.96;103041.31;5047370;28;20025;-64
2022/03/26 02:36:07;;;;;;;45.03;23.92;;;;;;;6.25;65.23;103041.34;5032739;28;20053;-64
2022/03/26 02:38:33;;;;;;;38.45;23.63;;;;;;;6.26;65.59;103048.34;5021401;28;20116;-63
2022/03/26 02:40:59;;;;;;;34.95;23.23;;;;;;;6.24;65.87;103039.59;5013167;28;20092;-61
2022/03/26 02:43:25;;;;;;;35.40;23.20;;;;;;;6.20;65.61;103037.97;5012627;28;20476;-61
2022/03/26 02:45:51;;;;;;;37.92;23.35;;;;;;;6.18;65.50;103045.00;5015770;28;20467;-61
2022/03/26 02:48:16;;;;;;;41.25;23.23;;;;;;;6.15;65.57;103043.31;5012592;28;20084;-61
2022/03/26 02:50:43;;;;;;;35.40;22.98;;;;;;;6.14;65.86;103043.38;5012149;28;20430;-63
2022/03/26 02:53:10;;;;;;;34.83;23.58;;;;;;;6.09;65.92;103044.31;5012543;28;20033;-63
2022/03/26 02:55:35;;;;;;;34.15;23.23;;;;;;;6.09;65.97;103036.41;5030343;28;20034;-62
2022/03/26 02:58:02;;;;;;;38.15;23.92;;;;;;;6.05;66.02;103037.38;5032205;28;20029;-61
2022/03/26 03:00:28;;;;;;;39.83;23.98;;;;;;;6.02;66.27;103040.09;5019596;28;20054;-62
2022/03/26 03:02:53;;;;;;;35.80;22.70;;;;;;;6.02;65.89;103044.50;5012208;28;20045;-62
2022/03/26 03:05:19;;;;;;;38.33;23.88;;;;;;;5.99;66.17;103037.50;5012244;28;20034;-62
2022/03/26 03:07:45;;;;;;;37.00;23.40;;;;;;;5.94;66.52;103028.81;5012857;28;20483;-62
2022/03/26 03:10:11;;;;;;;41.53;23.70;;;;;;;5.90;66.77;103028.00;5032299;28;20040;-62
2022/03/26 03:12:36;;;;;;;37.50;23.08;;;;;;;5.91;66.16;103034.13;5032177;28;20048;-62
2022/03/26 03:15:02;;;;;;;41.33;23.65;;;;;;;5.87;66.97;103032.47;5030781;28;20026;-62
2022/03/26 03:17:27;;;;;;;43.72;24.35;;;;;;;5.82;67.19;103037.00;5031430;28;20063;-62
2022/03/26 03:19:53;;;;;;;35.45;24.48;;;;;;;5.82;67.10;103042.28;5026165;28;20031;-62
2022/03/26 03:22:18;;;;;;;42.40;24.23;;;;;;;5.79;66.91;103037.91;5031682;28;20041;-62
2022/03/26 03:27:11;;;;;;;36.17;25.20;;;;;;;5.69;67.02;103031.09;5038606;28;20056;-84
2022/03/26 03:29:37;;;;;;;35.17;23.25;;;;;;;5.64;67.30;103022.41;5042207;28;20030;-84
2022/03/26 03:32:02;;;;;;;36.80;23.23;;;;;;;5.70;67.55;103038.97;5022689;28;20076;-84
2022/03/26 03:34:28;;;;;;;38.58;24.55;;;;;;;5.64;67.70;103032.97;5025131;28;20025;-85
2022/03/26 03:36:53;;;;;;;37.13;22.98;;;;;;;5.61;67.79;103020.69;5035227;28;20025;-85
2022/03/26 03:39:19;;;;;;;35.83;22.83;;;;;;;5.67;67.36;103038.19;5033093;28;20017;-85
2022/03/26 03:41:44;;;;;;;43.33;23.17;;;;;;;5.57;67.81;103019.91;5033448;28;20510;-85
2022/03/26 03:44:10;;;;;;;39.08;22.02;;;;;;;5.63;67.85;103036.50;5037211;28;20030;-85
2022/03/26 03:46:35;;;;;;;39.83;24.58;;;;;;;5.59;67.77;103035.69;5014126;28;20076;-85
2022/03/26 03:49:01;;;;;;;40.17;25.48;;;;;;;5.58;68.27;103044.53;5013553;28;20034;-84
2022/03/26 03:51:27;;;;;;;38.22;24.58;;;;;;;5.50;68.49;103036.75;5015010;28;20030;-85
2022/03/26 03:53:52;;;;;;;44.47;24.92;;;;;;;5.48;67.82;103041.19;5015285;28;20473;-84
2022/03/26 03:56:17;;;;;;;36.67;23.98;;;;;;;5.42;68.77;103040.44;5027552;28;20056;-85
2022/03/26 03:58:43;;;;;;;37.15;24.13;;;;;;;5.43;68.45;103040.41;5034725;28;20033;-84
2022/03/26 04:01:08;;;;;;;43.28;24.42;;;;;;;5.40;68.48;103045.75;5017256;28;20041;-85
2022/03/26 04:03:33;;;;;;;41.28;23.30;;;;;;;5.36;68.29;103044.94;5013820;28;20032;-85
2022/03/26 04:05:59;;;;;;;35.00;23.92;;;;;;;5.38;68.58;103045.78;5012613;28;20029;-85
2022/03/26 04:08:24;;;;;;;43.53;23.38;;;;;;;5.38;68.06;103051.03;5011587;28;20053;-84
2022/03/26 04:10:50;;;;;;;38.00;23.85;;;;;;;5.26;68.82;103032.84;5015583;28;20389;-85
2022/03/26 04:13:15;;;;;;;38.42;24.23;;;;;;;5.30;68.14;103046.81;5029599;28;20057;-86
2022/03/26 04:15:40;;;;;;;35.53;23.05;;;;;;;5.24;68.68;103039.88;5033576;28;20036;-86
2022/03/26 04:18:06;;;;;;;41.63;23.92;;;;;;;5.26;68.48;103059.19;5036666;28;20041;-86
2022/03/26 04:20:35;;;;;;;35.15;21.50;;;;;;;5.18;68.80;103046.16;5035368;28;20025;-86
2022/03/26 04:23:01;;;;;;;38.60;22.92;;;;;;;5.17;68.75;103051.44;5035038;28;20099;-85
2022/03/26 04:25:27;;;;;;;37.83;23.33;;;;;;;5.19;68.98;103061.03;5015211;28;20461;-85
2022/03/26 04:27:52;;;;;;;39.78;23.25;;;;;;;5.16;68.86;103055.84;5014484;28;20037;-85
2022/03/26 04:30:18;;;;;;;45.53;23.20;;;;;;;5.14;69.31;103059.41;5014569;28;20030;-87
2022/03/26 04:32:44;;;;;;;40.72;23.73;;;;;;;5.11;69.15;103048.91;5019700;28;20026;-86
2022/03/26 04:35:10;;;;;;;37.90;23.25;;;;;;;5.08;69.54;103047.22;5030077;28;20306;-86
2022/03/26 04:37:36;;;;;;;37.70;23.90;;;;;;;5.11;69.59;103055.06;5020152;28;20398;-86
2022/03/26 04:40:05;;;;;;;40.55;23.33;;;;;;;5.05;69.35;103057.81;5016220;28;20026;-85
2022/03/26 04:42:31;;;;;;;37.33;22.90;;;;;;;5.06;69.83;103056.03;5001542;28;20030;-86
2022/03/26 04:44:56;;;;;;;34.78;23.42;;;;;;;5.04;69.74;103048.16;5019147;28;20048;-85
2022/03/26 04:47:21;;;;;;;45.45;23.88;;;;;;;5.01;70.32;103045.56;5015177;28;20030;-85
2022/03/26 04:49:47;;;;;;;40.47;22.75;;;;;;;4.97;70.50;103046.53;5014860;28;20025;-86
2022/03/26 04:52:13;;;;;;;35.80;22.90;;;;;;;4.95;69.85;103045.69;5015175;28;20026;-85
2022/03/26 04:54:38;;;;;;;39.00;23.58;;;;;;;4.93;70.40;103044.84;5015416;28;20034;-86
2022/03/26 04:57:05;;;;;;;38.40;24.20;;;;;;;4.96;70.30;103045.69;5028489;28;20063;-86
2022/03/26 04:59:30;;;;;;;39.05;23.88;;;;;;;4.92;70.52;103049.25;5016763;28;20032;-87
2022/03/26 05:01:55;;;;;;;39.50;23.17;;;;;;;4.88;70.58;103046.69;5034727;28;20041;-84
2022/03/26 05:04:21;;;;;;;38.08;23.52;;;;;;;4.81;70.57;103040.66;5034270;28;20037;-86
2022/03/26 05:06:46;;;;;;;41.58;24.42;;;;;;;4.78;70.37;103035.44;5033988;28;20078;-86
2022/03/26 05:09:14;;;;;;;41.05;23.27;;;;;;;4.83;70.46;103041.53;5034347;28;20113;-86
2022/03/26 05:11:40;;;;;;;36.75;23.00;;;;;;;4.85;69.89;103052.03;5033022;28;20022;-86
2022/03/26 05:14:06;;;;;;;36.20;23.88;;;;;;;4.80;70.11;103054.72;5013625;28;20563;-86
2022/03/26 05:16:31;;;;;;;41.35;22.85;;;;;;;4.73;70.30;103046.06;5012775;28;20049;-86
2022/03/26 05:18:56;;;;;;;37.22;23.23;;;;;;;4.70;70.09;103037.34;5014421;28;20492;-86
2022/03/26 05:21:22;;;;;;;38.58;22.73;;;;;;;4.72;70.37;103056.63;5013520;28;20089;-85
2022/03/26 05:23:47;;;;;;;38.95;23.92;;;;;;;4.68;70.59;103052.28;5015432;28;20022;-85
2022/03/26 05:26:12;;;;;;;42.42;23.92;;;;;;;4.66;70.69;103046.19;5030045;28;20057;-86
2022/03/26 05:28:38;;;;;;;37.45;23.02;;;;;;;4.69;70.25;103057.53;5013882;28;20112;-86
2022/03/26 05:31:05;;;;;;;37.65;23.92;;;;;;;4.71;70.53;103062.78;5015671;28;20034;-86
2022/03/26 05:33:30;;;;;;;43.63;23.70;;;;;;;4.59;71.11;103056.81;5014589;28;20029;-86
2022/03/26 05:35:58;;;;;;;40.20;24.42;;;;;;;4.58;70.97;103065.63;5019992;28;20543;-86
2022/03/26 05:38:23;;;;;;;37.50;23.60;;;;;;;4.64;70.82;103077.78;5034763;28;20523;-85
2022/03/26 05:40:49;;;;;;;43.75;25.25;;;;;;;4.55;71.10;103063.03;5036258;28;20037;-85
2022/03/26 05:43:15;;;;;;;35.25;24.25;;;;;;;4.57;70.92;103071.75;5038355;28;20469;-85
2022/03/26 05:45:43;;;;;;;41.17;24.90;;;;;;;4.56;70.95;103077.03;5038110;28;20071;-86
2022/03/26 05:48:08;;;;;;;42.70;24.00;;;;;;;4.50;71.21;103075.38;5038363;28;20029;-86
2022/03/26 05:50:34;;;;;;;43.00;23.77;;;;;;;4.49;71.22;103081.53;5037533;28;20509;-86
2022/03/26 05:53:00;;;;;;;38.25;23.92;;;;;;;4.47;71.63;103087.72;5041905;28;20377;-86
2022/03/26 05:55:26;;;;;;;43.33;23.65;;;;;;;4.51;71.80;103089.41;5045525;28;20048;-85
2022/03/26 05:57:51;;;;;;;39.28;23.88;;;;;;;4.48;71.75;103090.34;5037949;28;20022;-85
2022/03/26 06:00:17;;;;;;;38.25;24.75;;;;;;;4.44;71.87;103089.47;5020089;28;20042;-84
2022/03/26 06:02:42;;;;;;;43.47;24.48;;;;;;;4.52;71.67;103101.69;5019161;28;20076;-85
2022/03/26 06:05:08;;;;;;;39.17;24.77;;;;;;;4.48;71.72;103099.97;5018522;28;20467;-84
2022/03/26 06:07:33;;;;;;;42.80;24.02;;;;;;;4.52;71.80;103109.56;5023712;28;20040;-86
2022/03/26 06:09:58;;;;;;;43.88;24.60;;;;;;;4.52;72.10;103106.94;5037848;28;20032;-86
2022/03/26 06:12:24;;;;;;;40.80;25.00;;;;;;;4.49;72.41;103102.59;5040461;28;20029;-86
2022/03/26 06:14:49;;;;;;;41.35;24.48;;;;;;;4.50;71.94;103103.47;5036262;28;20037;-85
2022/03/26 06:17:15;;;;;;;37.25;23.20;;;;;;;4.56;72.52;103112.16;5023521;28;20089;-85
2022/03/26 06:19:43;;;;;;;39.80;24.15;;;;;;;4.53;71.65;103106.91;5036915;28;20057;-86
2022/03/26 06:22:09;;;;;;;38.15;24.70;;;;;;;4.61;72.20;103112.06;5040568;28;20032;-84
2022/03/26 06:24:34;;;;;;;39.90;24.58;;;;;;;4.62;72.23;103112.03;5041180;28;20017;-85
2022/03/26 06:27:01;;;;;;;38.60;23.55;;;;;;;4.64;72.08;103112.88;5043911;28;20160;-86
2022/03/26 06:29:26;;;;;;;38.63;22.60;;;;;;;4.70;72.30;103111.06;5041629;28;20026;-86
2022/03/26 06:31:52;;;;;;;46.30;24.67;;;;;;;4.74;72.85;103110.09;5027998;28;20029;-86
2022/03/26 06:34:17;;;;;;;40.35;23.83;;;;;;;4.77;72.78;103115.34;5026249;28;20480;-86
2022/03/26 06:36:43;;;;;;;40.33;23.58;;;;;;;4.80;72.84;103110.03;5023370;28;20034;-86
2022/03/26 06:39:09;;;;;;;45.38;24.40;;;;;;;4.86;72.53;103117.81;5023077;28;20021;-86
2022/03/26 06:41:38;;;;;;;36.45;23.73;;;;;;;4.89;72.41;103115.13;5032585;28;20030;-86
2022/03/26 06:44:10;;;;;;;45.13;24.10;;;;;;;4.93;72.23;103113.31;5036471;28;20013;-86
2022/03/26 06:46:36;;;;;;;40.47;24.60;;;;;;;4.99;73.20;103129.88;5037900;28;20061;-86
2022/03/26 06:49:03;;;;;;;41.00;25.27;;;;;;;5.06;73.14;103127.16;5058624;28;20073;-86
2022/03/26 06:51:28;;;;;;;39.72;24.92;;;;;;;5.11;72.88;103131.47;5050387;28;20364;-87
2022/03/26 06:53:53;;;;;;;46.10;25.50;;;;;;;5.12;73.38;103122.66;5052326;28;20057;-86
2022/03/26 06:56:18;;;;;;;43.58;26.35;;;;;;;5.23;73.36;103130.38;5052285;28;20045;-86
2022/03/26 06:58:44;;;;;;;42.78;26.15;;;;;;;5.32;73.14;103124.06;5054361;28;20052;-85
2022/03/26 07:01:10;;;;;;;43.17;25.63;;;;;;;5.41;73.01;103133.56;5047832;28;20033;-85
2022/03/26 07:03:35;;;;;;;44.20;26.45;;;;;;;5.46;72.50;103129.97;5041024;28;20099;-85
2022/03/26 07:06:01;;;;;;;46.05;27.20;;;;;;;5.55;71.88;103128.94;5037814;28;20112;-85
2022/03/26 07:08:26;;;;;;;47.17;27.45;;;;;;;5.69;71.92;103139.19;5020640;28;20042;-85
2022/03/26 07:10:52;;;;;;;50.55;27.75;;;;;;;5.74;71.85;103127.69;5019724;28;20038;-86
2022/03/26 07:13:17;;;;;;;41.08;25.50;;;;;;;5.87;71.77;103135.34;5033821;28;20027;-85
2022/03/26 07:15:43;;;;;;;43.17;26.85;;;;;;;5.98;71.14;103143.06;5037837;28;20040;-85
2022/03/26 07:18:09;;;;;;;45.15;27.05;;;;;;;6.09;70.61;103134.00;5037583;28;20044;-87
2022/03/26 07:20:36;;;;;;;44.78;27.52;;;;;;;6.21;70.59;103140.84;5034099;28;20029;-87
2022/03/26 07:23:02;;;;;;;44.63;27.02;;;;;;;6.34;70.63;103135.28;5034013;28;20112;-87
2022/03/26 07:25:29;;;;;;;41.67;27.00;;;;;;;6.46;69.50;103135.88;5034075;28;20072;-87
2022/03/26 07:27:54;;;;;;;46.55;27.63;;;;;;;6.62;69.54;103138.16;5032755;28;20116;-87
2022/03/26 07:30:20;;;;;;;46.65;26.73;;;;;;;6.78;68.49;103138.69;5034144;28;20099;-86
2022/03/26 07:32:45;;;;;;;47.28;26.00;;;;;;;6.94;68.21;103132.09;5033169;28;20415;-85
2022/03/26 07:35:10;;;;;;;48.75;27.27;;;;;;;7.12;67.75;103137.84;5032788;28;20604;-84
2022/03/26 07:37:36;;;;;;;50.17;26.08;;;;;;;7.34;67.47;103136.38;5027556;28;20060;-85
2022/03/26 07:40:02;;;;;;;45.92;27.63;;;;;;;7.53;66.78;103139.41;5033028;28;20037;-85
2022/03/26 07:42:27;;;;;;;47.30;26.52;;;;;;;7.81;66.43;103149.25;5031625;28;20080;-85
2022/03/26 07:44:53;;;;;;;42.88;27.10;;;;;;;8.04;64.74;103137.13;5032708;28;20076;-85
2022/03/26 07:47:19;;;;;;;45.03;28.45;;;;;;;8.33;64.37;103141.56;5019231;28;20033;-83
2022/03/26 07:49:47;;;;;;;48.55;26.73;;;;;;;8.65;63.68;103150.34;5012399;28;20057;-84
2022/03/26 07:52:12;;;;;;;42.15;26.15;;;;;;;8.87;62.62;103143.41;5032598;28;20034;-84
2022/03/26 07:54:39;;;;;;;45.95;26.50;;;;;;;9.15;61.70;103141.66;5033692;28;20219;-84
2022/03/26 07:57:04;;;;;;;45.35;27.08;;;;;;;9.43;62.41;103147.75;5033445;28;20044;-84
2022/03/26 07:59:30;;;;;;;48.63;27.42;;;;;;;9.70;60.02;103141.50;5022580;28;20038;-85
2022/03/26 08:01:58;;;;;;;44.78;25.90;;;;;;;10.05;59.88;103142.88;5015715;28;20042;-85
2022/03/26 08:04:23;;;;;;;42.80;24.90;;;;;;;10.34;58.83;103149.78;5020838;28;20388;-84
2022/03/26 08:06:48;;;;;;;41.70;23.52;;;;;;;10.64;58.54;103149.50;5035442;28;20033;-85
2022/03/26 08:09:14;;;;;;;41.42;25.08;;;;;;;10.95;57.13;103150.88;5033479;28;20083;-84
2022/03/26 08:11:39;;;;;;;35.67;23.80;;;;;;;11.30;56.27;103152.06;5034428;28;20025;-85
2022/03/26 08:14:04;;;;;;;38.50;25.00;;;;;;;11.52;55.73;103142.28;5037371;28;20420;-86
2022/03/26 08:16:30;;;;;;;42.25;24.83;;;;;;;11.76;54.10;103143.88;5035416;28;20100;-84
2022/03/26 08:18:55;;;;;;;40.65;23.08;;;;;;;12.09;53.29;103147.75;5035320;28;20120;-84
2022/03/26 08:21:20;;;;;;;45.95;23.98;;;;;;;12.25;52.21;103147.91;5035444;28;20045;-85
2022/03/26 08:23:46;;;;;;;37.38;22.00;;;;;;;12.62;52.59;103148.81;5031972;28;20076;-85
2022/03/26 08:26:22;;;;;;;36.08;22.08;;;;;;;12.77;51.56;103151.63;5031802;28;20128;-84
2022/03/26 08:28:51;;;;;;;39.05;22.65;;;;;;;13.02;51.17;103146.84;5028783;28;20060;-84
2022/03/26 08:31:17;;;;;;;38.88;22.85;;;;;;;13.19;50.41;103146.00;5027788;28;20030;-84
2022/03/26 08:33:42;;;;;;;35.17;22.02;;;;;;;13.49;50.47;103148.94;5039182;28;20044;-85
2022/03/26 08:36:09;;;;;;;36.10;21.17;;;;;;;13.81;49.47;103152.56;5034304;28;20026;-86
2022/03/26 08:38:35;;;;;;;31.92;21.05;;;;;;;14.11;48.35;103145.66;5030953;28;20064;-85
2022/03/26 08:41:00;;;;;;;33.15;20.92;;;;;;;14.36;48.11;103153.19;5054044;28;20096;-85
2022/03/26 08:43:25;;;;;;;36.20;21.55;;;;;;;14.63;47.43;103149.94;5050081;28;20022;-86
2022/03/26 08:45:54;;;;;;;36.90;21.20;;;;;;;14.85;46.69;103160.25;5035658;28;20029;-86
2022/03/26 08:48:19;;;;;;;43.77;21.77;;;;;;;15.02;46.47;103148.56;5040173;28;20059;-86
2022/03/26 08:50:44;;;;;;;34.38;20.98;;;;;;;15.23;45.61;103151.78;5059957;28;20025;-86
2022/03/26 08:53:13;;;;;;;32.03;21.63;;;;;;;15.51;46.42;103153.66;5035783;28;20030;-85
2022/03/26 08:55:38;;;;;;;40.75;21.60;;;;;;;15.76;44.89;103155.72;5034702;28;20345;-87
2022/03/26 08:58:03;;;;;;;33.30;20.42;;;;;;;15.89;43.97;103154.00;5036120;28;20030;-86
2022/03/26 09:00:31;;;;;;;36.22;22.05;;;;;;;16.20;44.31;103146.69;5025283;28;20045;-87
2022/03/26 09:02:57;;;;;;;38.35;22.05;;;;;;;16.38;43.63;103154.53;5017154;28;20030;-84
2022/03/26 09:05:22;;;;;;;36.10;21.20;;;;;;;16.69;43.48;103152.56;5018387;28;20036;-87
2022/03/26 09:07:48;;;;;;;36.25;21.08;;;;;;;16.85;43.13;103153.25;5020499;28;20080;-86
2022/03/26 09:10:14;;;;;;;36.00;21.80;;;;;;;17.06;42.22;103156.34;5021324;28;20115;-86
2022/03/26 09:12:39;;;;;;;36.28;22.17;;;;;;;17.23;41.79;103155.19;5044039;28;20056;-86
2022/03/26 09:15:07;;;;;;;30.33;20.08;;;;;;;17.50;41.58;103151.56;5052102;28;20033;-86
2022/03/26 09:17:33;;;;;;;32.40;21.83;;;;;;;17.70;41.15;103153.75;5050889;28;20047;-83
2022/03/26 09:19:58;;;;;;;33.88;22.77;;;;;;;17.72;39.62;103153.63;5038645;28;20029;-84
2022/03/26 09:22:24;;;;;;;41.40;24.13;;;;;;;17.94;40.13;103159.22;5026861;28;20408;-86
2022/03/26 09:24:49;;;;;;;33.15;23.13;;;;;;;18.19;40.21;103162.84;5015269;28;20022;-85
2022/03/26 09:27:14;;;;;;;34.97;22.63;;;;;;;18.27;39.67;103157.78;5014898;28;20028;-83
2022/03/26 09:29:40;;;;;;;39.50;23.05;;;;;;;18.42;39.13;103161.16;5031341;28;20279;-82
2022/03/26 09:32:05;;;;;;;35.05;21.80;;;;;;;18.46;38.43;103159.97;5025018;28;20025;-82
2022/03/26 09:34:30;;;;;;;32.45;21.45;;;;;;;18.58;39.57;103160.88;5033325;28;20089;-83
2022/03/26 09:36:55;;;;;;;33.87;21.53;;;;;;;18.73;38.55;103161.56;5034578;28;20096;-84
2022/03/26 09:39:21;;;;;;;35.83;21.00;;;;;;;18.93;37.61;103154.72;5027031;28;20277;-84
2022/03/26 09:41:47;;;;;;;31.05;20.50;;;;;;;19.09;37.37;103157.13;5020342;28;20092;-83
2022/03/26 09:44:13;;;;;;;31.92;20.02;;;;;;;19.34;37.34;103152.53;5033665;28;20022;-83
2022/03/26 09:46:39;;;;;;;33.17;21.08;;;;;;;19.49;36.94;103153.19;5033204;28;20029;-83
2022/03/26 09:49:05;;;;;;;32.60;19.75;;;;;;;19.69;36.95;103148.94;5018131;28;20030;-84
2022/03/26 09:51:32;;;;;;;35.10;21.55;;;;;;;19.72;36.59;103151.38;5015342;28;20033;-82
2022/03/26 09:53:57;;;;;;;36.35;22.10;;;;;;;19.90;36.13;103144.56;5014911;28;20037;-84
2022/03/26 09:56:24;;;;;;;36.90;20.63;;;;;;;20.15;36.13;103146.13;5027938;28;20033;-84
2022/03/26 09:58:53;;;;;;;35.17;20.05;;;;;;;20.25;36.38;103145.34;5012722;28;20036;-83
2022/03/26 10:01:22;;;;;;;29.58;19.15;;;;;;;20.20;34.99;103148.47;5031501;28;20028;-83
2022/03/26 10:04:06;;;;;;;;;;;;;;;20.48;38.00;103148.88;5034053;28;20564;-85
2022/03/26 10:06:32;;;;;;;30.60;19.08;;;;;;;20.44;34.78;103139.31;5033168;28;19917;-85
2022/03/26 10:08:57;;;;;;;33.88;19.25;;;;;;;20.44;33.79;103137.47;5031934;28;20113;-85
2022/03/26 10:11:22;;;;;;;32.45;18.27;;;;;;;20.54;34.62;103134.88;5035177;28;20034;-84
2022/03/26 10:13:52;;;;;;;26.30;17.15;;;;;;;20.61;34.20;103140.63;5034701;28;20025;-83
2022/03/26 10:16:18;;;;;;;27.98;18.10;;;;;;;20.78;33.96;103144.63;5017987;28;20136;-84
2022/03/26 10:18:45;;;;;;;28.30;18.33;;;;;;;20.77;33.55;103135.69;5033134;28;20127;-84
2022/03/26 10:21:15;;;;;;;29.95;18.98;;;;;;;20.89;33.36;103131.94;5022384;28;20471;-85
2022/03/26 10:23:50;;;;;;;23.80;16.10;;;;;;;20.82;33.82;103136.16;5019315;28;20030;-84
2022/03/26 10:26:23;;;;;;;27.50;16.98;;;;;;;20.88;33.54;103135.66;5016558;28;20060;-83
2022/03/26 10:28:52;;;;;;;25.02;17.95;;;;;;;20.89;32.57;103140.03;5025109;28;20026;-83
2022/03/26 10:34:07;;;;;;;26.88;14.40;;;;;;;21.09;31.21;103133.94;5028287;28;20353;-83
2022/03/26 10:36:33;;;;;;;;;;;;;;;21.38;34.33;103136.81;5014864;28;20022;-83
2022/03/26 10:38:59;;;;;;;22.27;12.23;;;;;;;21.24;29.36;103132.63;5031903;28;19951;-83
2022/03/26 10:41:24;;;;;;;19.70;12.32;;;;;;;21.31;29.36;103128.41;5033015;28;20057;-83
2022/03/26 10:44:08;;;;;;;20.33;12.87;;;;;;;21.48;31.63;103131.50;5014169;28;20461;-84
2022/03/26 10:46:51;;;;;;;21.05;13.32;;;;;;;21.48;30.59;103129.66;5013963;28;20621;-86
2022/03/26 10:49:28;;;;;;;26.88;14.77;;;;;;;21.44;30.26;103131.75;5013976;28;20560;-85
2022/03/26 10:51:55;;;;;;;24.42;14.88;;;;;;;21.32;30.28;103127.41;5029547;28;20040;-84
2022/03/26 10:54:29;;;;;;;24.58;15.02;;;;;;;21.42;30.90;103122.06;5032798;28;20108;-84
2022/03/26 10:56:57;;;;;;;26.83;15.10;;;;;;;21.29;28.27;103114.16;5032105;28;20121;-85
2022/03/26 10:59:23;;;;;;;22.52;13.23;;;;;;;21.40;28.87;103129.44;5032012;28;20065;-83
2022/03/26 11:01:49;;;;;;;28.83;14.63;;;;;;;21.58;28.73;103129.72;5032045;28;20413;-83
2022/03/26 11:04:14;;;;;;;27.50;14.85;;;;;;;21.62;28.43;103118.50;5031625;28;20028;-83
2022/03/26 11:06:40;;;;;;;23.42;14.45;;;;;;;21.74;28.73;103115.72;5032756;28;20183;-83
2022/03/26 11:09:06;;;;;;;24.40;14.88;;;;;;;21.61;28.42;103108.66;5033118;28;20025;-83
2022/03/26 11:11:32;;;;;;;24.67;14.55;;;;;;;21.62;29.82;103120.34;5032628;28;20083;-83
2022/03/26 11:14:07;;;;;;;23.20;13.68;;;;;;;21.74;29.37;103124.66;5031595;28;20057;-84